Time;durP1;ratioP1;P1;durP2;ratioP2;P2;SDS_P1;SDS_P2;PMS_P1;PMS_P2;Temp;Humidity;BMP_temperature;BMP_pressure;BME280_temperature;BME280_humidity;BME280_pressure;Samples;Min_cycle;Max_cycle;Signal;HPM_P1;HPM_P2
2022/09/17 00:01:37;;;;;;;7.43;1.92;;;8.80;99.90;;;;;;5092165;28;20131;-70
2022/09/17 00:04:03;;;;;;;6.00;1.70;;;8.80;99.90;;;;;;5122845;27;20423;-70
2022/09/17 00:06:31;;;;;;;4.35;1.70;;;8.80;99.90;;;;;;5088477;28;20066;-69
2022/09/17 00:08:56;;;;;;;7.65;1.65;;;8.80;99.90;;;;;;5085792;28;20035;-69
2022/09/17 00:11:25;;;;;;;3.65;1.52;;;8.80;99.90;;;;;;5105769;27;20028;-69
2022/09/17 00:13:52;;;;;;;3.35;1.40;;;8.70;99.90;;;;;;5083778;28;20081;-69
2022/09/17 00:16:30;;;;;;;3.83;1.58;;;8.70;99.90;;;;;;5101502;28;20039;-71
2022/09/17 00:18:56;;;;;;;4.13;1.30;;;8.70;99.90;;;;;;5092176;28;20028;-71
2022/09/17 00:21:22;;;;;;;4.13;1.30;;;8.70;99.90;;;;;;5099330;28;20056;-70
2022/09/17 00:23:52;;;;;;;6.32;1.70;;;8.70;99.90;;;;;;5098919;28;20075;-70
2022/09/17 00:26:17;;;;;;;3.88;1.70;;;8.70;99.90;;;;;;5082202;28;20028;-73
2022/09/17 00:28:47;;;;;;;5.20;1.63;;;8.70;99.90;;;;;;5104524;27;20417;-69
2022/09/17 00:31:13;;;;;;;3.58;1.48;;;8.70;99.90;;;;;;5103387;27;20055;-72
2022/09/17 00:33:38;;;;;;;5.55;1.27;;;8.70;99.90;;;;;;5097908;28;20123;-71
2022/09/17 00:36:04;;;;;;;5.63;1.20;;;8.60;99.90;;;;;;5098865;28;20479;-72
2022/09/17 00:38:30;;;;;;;4.53;1.70;;;8.60;99.90;;;;;;5085932;27;20027;-70
2022/09/17 00:40:56;;;;;;;3.88;1.45;;;8.60;99.90;;;;;;5086618;28;20027;-71
2022/09/17 00:43:56;;;;;;;4.65;1.30;;;8.60;99.90;;;;;;5092661;28;20036;-72
2022/09/17 00:46:22;;;;;;;3.88;1.38;;;8.50;99.90;;;;;;5016784;28;20080;-69
2022/09/17 00:48:48;;;;;;;5.20;1.38;;;8.50;99.90;;;;;;5020022;28;20491;-69
2022/09/17 00:51:18;;;;;;;3.88;1.20;;;8.50;99.90;;;;;;5022235;28;20048;-69
2022/09/17 00:53:44;;;;;;;6.93;1.50;;;8.50;99.90;;;;;;5001854;28;20038;-68
2022/09/17 00:56:18;;;;;;;4.72;1.58;;;8.50;99.90;;;;;;5007044;28;20041;-71
2022/09/17 00:58:45;;;;;;;3.25;1.42;;;8.50;99.90;;;;;;5010006;28;20029;-68
2022/09/17 01:01:10;;;;;;;3.45;1.45;;;8.40;99.90;;;;;;5008603;28;20489;-71
2022/09/17 01:03:36;;;;;;;4.47;1.38;;;8.40;99.90;;;;;;5026119;28;20048;-69
2022/09/17 01:06:02;;;;;;;6.15;1.60;;;8.40;99.90;;;;;;5025661;28;20026;-70
2022/09/17 01:08:33;;;;;;;4.85;1.52;;;8.40;99.90;;;;;;5025364;28;20041;-69
2022/09/17 01:11:23;;;;;;;4.82;1.25;;;8.40;99.90;;;;;;5009039;28;20084;-70
2022/09/17 01:14:14;;;;;;;3.60;1.52;;;8.30;99.90;;;;;;5021134;28;20037;-69
2022/09/17 01:17:03;;;;;;;4.65;1.23;;;8.30;99.90;;;;;;5039574;28;20041;-69
2022/09/17 01:19:49;;;;;;;4.28;1.48;;;8.30;99.90;;;;;;5024070;28;20045;-71
2022/09/17 01:22:32;;;;;;;6.07;1.63;;;8.20;99.90;;;;;;5045333;28;20499;-71
2022/09/17 01:25:33;;;;;;;6.20;1.70;;;8.20;99.90;;;;;;5083028;28;20401;-69
2022/09/17 01:28:08;;;;;;;5.00;1.55;;;8.10;99.90;;;;;;5088287;28;20039;-70
2022/09/17 01:30:42;;;;;;;5.53;1.77;;;8.10;99.90;;;;;;5082095;28;20445;-71
2022/09/17 01:33:17;;;;;;;3.45;1.25;;;8.10;99.90;;;;;;5089403;28;20051;-72
2022/09/17 01:36:02;;;;;;;3.75;1.42;;;8.00;99.90;;;;;;5106330;28;20055;-70
2022/09/17 01:38:48;;;;;;;3.78;1.40;;;8.00;99.90;;;;;;5105911;27;20031;-73
2022/09/17 01:41:45;;;;;;;4.28;1.40;;;8.00;99.90;;;;;;5106002;28;20051;-69
2022/09/17 01:44:16;;;;;;;4.80;1.40;;;8.00;99.90;;;;;;5100403;27;20050;-69
2022/09/17 01:46:56;;;;;;;3.88;1.50;;;8.00;99.90;;;;;;5098580;27;20408;-70
2022/09/17 01:49:26;;;;;;;3.92;1.20;;;8.00;99.90;;;;;;5100068;27;20043;-71
2022/09/17 01:51:53;;;;;;;6.10;1.90;;;8.00;99.90;;;;;;5092874;27;20037;-70
2022/09/17 01:54:36;;;;;;;5.80;1.30;;;8.00;99.90;;;;;;5097673;27;20031;-69
2022/09/17 01:57:20;;;;;;;3.42;1.42;;;8.00;99.90;;;;;;5096191;28;20053;-70
2022/09/17 01:59:55;;;;;;;6.28;1.40;;;8.00;99.90;;;;;;5101851;28;20489;-69
2022/09/17 02:02:28;;;;;;;3.60;1.35;;;8.00;99.90;;;;;;5095757;28;20146;-69
2022/09/17 02:05:05;;;;;;;7.43;1.77;;;7.90;99.90;;;;;;5106017;27;20062;-69
2022/09/17 02:07:35;;;;;;;8.52;1.42;;;7.90;99.90;;;;;;5098675;27;20042;-70
2022/09/17 02:10:11;;;;;;;;;;;7.90;99.90;;;;;;5101322;27;20040;-69
2022/09/17 02:12:42;;;;;;;3.80;1.50;;;7.90;99.90;;;;;;5091902;28;19953;-69
2022/09/17 02:15:17;;;;;;;5.35;1.30;;;7.90;99.90;;;;;;5084209;28;20084;-69
2022/09/17 02:17:56;;;;;;;4.78;1.23;;;7.90;99.90;;;;;;5110686;27;20031;-69
2022/09/17 02:20:34;;;;;;;4.68;1.40;;;7.90;99.90;;;;;;5103625;27;20031;-69
2022/09/17 02:23:06;;;;;;;7.78;1.50;;;7.80;99.90;;;;;;5112372;27;20042;-72
2022/09/17 02:25:42;;;;;;;4.03;1.27;;;7.80;99.90;;;;;;5100505;28;20237;-70
2022/09/17 02:28:22;;;;;;;3.35;1.40;;;7.80;99.90;;;;;;5116692;27;20045;-70
2022/09/17 02:30:47;;;;;;;;;;;7.90;99.90;;;;;;5091087;28;20039;-70
2022/09/17 02:33:14;;;;;;;4.38;1.30;;;7.90;99.90;;;;;;5107086;27;19911;-70
2022/09/17 02:35:42;;;;;;;5.88;1.33;;;7.80;99.90;;;;;;5107864;27;20035;-69
2022/09/17 02:38:07;;;;;;;5.10;1.60;;;7.90;99.90;;;;;;5113327;27;20480;-72
2022/09/17 02:40:53;;;;;;;4.65;1.13;;;7.80;99.90;;;;;;5092972;28;20035;-71
2022/09/17 02:44:14;;;;;;;4.00;1.50;;;7.80;99.90;;;;;;5098663;28;20433;-71
2022/09/17 02:46:52;;;;;;;5.00;1.45;;;7.80;99.90;;;;;;5093273;27;20039;-69
2022/09/17 02:49:40;;;;;;;4.90;1.30;;;7.80;99.90;;;;;;5105218;27;20061;-71
2022/09/17 02:52:12;;;;;;;5.75;1.35;;;7.80;99.90;;;;;;5106520;28;20035;-71
2022/09/17 02:54:49;;;;;;;3.42;1.45;;;7.80;99.90;;;;;;5106738;28;20058;-71
2022/09/17 02:57:36;;;;;;;5.82;1.70;;;7.70;99.90;;;;;;5093616;28;20504;-71
2022/09/17 03:00:19;;;;;;;4.53;1.45;;;7.70;99.90;;;;;;5103369;28;20035;-72
2022/09/17 03:03:16;;;;;;;5.00;1.33;;;7.70;99.90;;;;;;5106503;28;20039;-69
2022/09/17 03:05:43;;;;;;;5.45;1.48;;;7.70;99.90;;;;;;5096089;28;20127;-70
2022/09/17 03:08:13;;;;;;;6.32;1.58;;;7.70;99.90;;;;;;5108418;28;20066;-70
2022/09/17 03:10:39;;;;;;;;;;;7.70;99.90;;;;;;5105845;28;20063;-69
2022/09/17 03:13:05;;;;;;;4.80;1.38;;;7.70;99.90;;;;;;5113864;28;19912;-69
2022/09/17 03:15:30;;;;;;;3.45;1.10;;;7.70;99.90;;;;;;5088497;28;20073;-71
2022/09/17 03:17:56;;;;;;;5.00;1.25;;;7.60;99.90;;;;;;5112064;28;20034;-69
2022/09/17 03:20:22;;;;;;;4.38;1.30;;;7.60;99.90;;;;;;5107400;28;20043;-69
2022/09/17 03:22:47;;;;;;;4.68;1.27;;;7.60;99.90;;;;;;5111136;27;20050;-70
2022/09/17 03:25:13;;;;;;;4.43;1.30;;;7.60;99.90;;;;;;5109810;28;20118;-69
2022/09/17 03:27:39;;;;;;;3.45;1.20;;;7.60;99.90;;;;;;5097989;28;20038;-69
2022/09/17 03:30:05;;;;;;;4.63;1.30;;;7.50;99.90;;;;;;5112883;27;20136;-71
2022/09/17 03:32:32;;;;;;;5.30;1.60;;;7.60;99.90;;;;;;5115190;27;20032;-70
2022/09/17 03:34:58;;;;;;;4.07;1.40;;;7.60;99.90;;;;;;5111899;27;20039;-70
2022/09/17 03:37:24;;;;;;;5.18;1.20;;;7.50;99.90;;;;;;5112728;27;20030;-72
2022/09/17 03:39:49;;;;;;;5.25;1.30;;;7.50;99.90;;;;;;5096510;27;20042;-69
2022/09/17 03:42:15;;;;;;;5.40;1.58;;;7.50;99.90;;;;;;5114224;27;20057;-68
2022/09/17 03:44:40;;;;;;;4.55;1.30;;;7.50;99.90;;;;;;5111446;27;20031;-70
2022/09/17 03:47:06;;;;;;;6.25;1.67;;;7.40;99.90;;;;;;5114763;27;20104;-69
2022/09/17 03:49:32;;;;;;;4.45;1.50;;;7.40;99.90;;;;;;5104176;28;20492;-69
2022/09/17 03:51:58;;;;;;;6.00;1.50;;;7.40;99.90;;;;;;5112070;27;20028;-69
2022/09/17 03:54:24;;;;;;;4.25;1.50;;;7.40;99.90;;;;;;5114322;27;20030;-69
2022/09/17 03:56:50;;;;;;;4.60;1.70;;;7.40;99.90;;;;;;5120185;27;20031;-69
2022/09/17 03:59:16;;;;;;;4.68;1.50;;;7.30;99.90;;;;;;5107777;27;20039;-69
2022/09/17 04:01:41;;;;;;;5.63;1.58;;;7.30;99.90;;;;;;5097262;28;20032;-71
2022/09/17 04:04:07;;;;;;;4.97;1.67;;;7.30;99.90;;;;;;5110520;27;20035;-70
2022/09/17 04:06:33;;;;;;;5.32;1.52;;;7.20;99.90;;;;;;5092631;28;20027;-69
2022/09/17 04:08:59;;;;;;;6.47;1.73;;;7.20;99.90;;;;;;5092761;28;20071;-68
2022/09/17 04:11:26;;;;;;;4.68;1.20;;;7.20;99.90;;;;;;5111171;27;20062;-68
2022/09/17 04:13:51;;;;;;;3.42;1.50;;;7.20;99.90;;;;;;5107696;28;20031;-74
2022/09/17 04:16:17;;;;;;;3.97;1.35;;;7.10;99.90;;;;;;5104775;28;20024;-70
2022/09/17 04:18:42;;;;;;;2.70;1.25;;;7.10;99.90;;;;;;5099640;28;20055;-71
2022/09/17 04:21:08;;;;;;;3.33;1.25;;;7.10;99.90;;;;;;5104896;28;20028;-71
2022/09/17 04:23:34;;;;;;;3.83;1.40;;;7.10;99.90;;;;;;5102948;28;20045;-70
2022/09/17 04:25:59;;;;;;;4.15;1.20;;;7.10;99.90;;;;;;5092616;28;20516;-72
2022/09/17 04:28:25;;;;;;;4.75;1.40;;;7.10;99.90;;;;;;5099064;27;20112;-70
2022/09/17 04:30:51;;;;;;;6.05;1.40;;;7.10;99.90;;;;;;5105192;27;20040;-70
2022/09/17 04:33:16;;;;;;;4.25;1.17;;;7.10;99.90;;;;;;5082577;28;20058;-69
2022/09/17 04:35:42;;;;;;;5.03;1.52;;;7.10;99.90;;;;;;5089908;28;20110;-69
2022/09/17 04:38:08;;;;;;;6.03;1.52;;;7.10;99.90;;;;;;5097506;27;20035;-70
2022/09/17 04:40:34;;;;;;;6.38;1.48;;;7.10;99.90;;;;;;5107017;28;20546;-71
2022/09/17 04:43:01;;;;;;;5.43;1.55;;;7.10;99.90;;;;;;5092249;28;20036;-71
2022/09/17 04:45:29;;;;;;;4.07;1.35;;;7.10;99.90;;;;;;5099355;28;20059;-70
2022/09/17 04:47:55;;;;;;;6.70;1.80;;;7.10;99.90;;;;;;5112441;27;20054;-70
2022/09/17 04:50:21;;;;;;;4.53;1.50;;;7.10;99.90;;;;;;5087176;28;20044;-73
2022/09/17 04:52:48;;;;;;;7.57;1.50;;;7.10;99.90;;;;;;5085899;28;20027;-71
2022/09/17 04:55:15;;;;;;;3.42;1.42;;;7.00;99.90;;;;;;5084696;28;20751;-70
2022/09/17 04:57:47;;;;;;;5.97;1.60;;;7.00;99.90;;;;;;5109151;28;20030;-70
2022/09/17 05:00:14;;;;;;;5.95;1.60;;;7.00;99.90;;;;;;5109226;27;20108;-72
2022/09/17 05:02:41;;;;;;;5.50;1.70;;;7.00;99.90;;;;;;5090530;28;20034;-70
2022/09/17 05:05:07;;;;;;;5.68;1.60;;;7.00;99.90;;;;;;5089376;28;20032;-72
2022/09/17 05:07:33;;;;;;;6.43;1.60;;;6.90;99.90;;;;;;5107667;28;20055;-70
2022/09/17 05:09:59;;;;;;;3.83;1.30;;;6.90;99.90;;;;;;5110787;27;20063;-70
2022/09/17 05:12:24;;;;;;;5.40;1.50;;;6.90;99.90;;;;;;5104964;28;20038;-71
2022/09/17 05:14:50;;;;;;;4.15;1.60;;;6.90;99.90;;;;;;5104510;28;20062;-71
2022/09/17 05:17:16;;;;;;;3.88;1.60;;;6.90;99.90;;;;;;5104025;27;20027;-71
2022/09/17 05:19:41;;;;;;;5.65;1.60;;;6.80;99.90;;;;;;5103709;27;20035;-71
2022/09/17 05:22:07;;;;;;;5.32;1.40;;;6.80;99.90;;;;;;5102492;28;20032;-69
2022/09/17 05:24:32;;;;;;;4.75;1.67;;;6.80;99.90;;;;;;5100929;28;20038;-71
2022/09/17 05:26:58;;;;;;;5.35;1.45;;;6.70;99.90;;;;;;5086364;28;20031;-70
2022/09/17 05:29:24;;;;;;;4.25;1.70;;;6.70;99.90;;;;;;5106060;27;20043;-70
2022/09/17 05:31:49;;;;;;;5.50;1.83;;;6.70;99.90;;;;;;5111393;27;20370;-70
2022/09/17 05:34:15;;;;;;;3.53;1.65;;;6.70;99.90;;;;;;5109038;27;20055;-72
2022/09/17 05:36:40;;;;;;;3.63;1.48;;;6.70;99.90;;;;;;5086625;28;20027;-70
2022/09/17 05:39:06;;;;;;;5.13;1.38;;;6.70;99.90;;;;;;5083101;28;20035;-70
2022/09/17 05:41:33;;;;;;;5.10;1.63;;;6.70;99.90;;;;;;5104260;27;20629;-69
2022/09/17 05:43:58;;;;;;;4.10;1.60;;;6.60;99.90;;;;;;5089526;27;20088;-70
2022/09/17 05:46:24;;;;;;;6.05;1.55;;;6.60;99.90;;;;;;5099066;27;20035;-70
2022/09/17 05:48:50;;;;;;;8.90;1.60;;;6.60;99.90;;;;;;5080325;28;20051;-71
2022/09/17 05:51:15;;;;;;;7.20;1.65;;;6.60;99.90;;;;;;5091416;28;20452;-71
2022/09/17 05:53:41;;;;;;;5.15;1.35;;;6.70;99.90;;;;;;5089027;28;20038;-69
2022/09/17 05:56:06;;;;;;;4.97;1.77;;;6.70;99.90;;;;;;5111917;27;20035;-70
2022/09/17 05:58:33;;;;;;;4.18;1.50;;;6.70;99.90;;;;;;5103411;27;20030;-68
2022/09/17 06:01:00;;;;;;;5.38;1.63;;;6.70;99.90;;;;;;5097818;27;20043;-70
2022/09/17 06:03:26;;;;;;;4.07;1.30;;;6.70;99.90;;;;;;5097143;27;20034;-68
2022/09/17 06:05:59;;;;;;;5.63;1.65;;;6.70;99.90;;;;;;5104711;28;20023;-70
2022/09/17 06:08:27;;;;;;;4.82;1.50;;;6.70;99.90;;;;;;5099941;28;20066;-70
2022/09/17 06:10:53;;;;;;;4.07;1.30;;;6.70;99.90;;;;;;5099711;28;20027;-68
2022/09/17 06:13:19;;;;;;;3.95;1.67;;;6.70;99.90;;;;;;5106962;28;20039;-70
2022/09/17 06:15:50;;;;;;;4.00;1.33;;;6.70;99.90;;;;;;5104556;27;20080;-68
2022/09/17 06:18:16;;;;;;;3.28;1.08;;;6.70;99.90;;;;;;5109349;27;20393;-70
2022/09/17 06:20:42;;;;;;;5.20;1.42;;;6.80;99.90;;;;;;5107298;28;20038;-71
2022/09/17 06:23:07;;;;;;;5.63;1.48;;;6.80;99.90;;;;;;5089990;28;20031;-69
2022/09/17 06:25:34;;;;;;;3.63;1.40;;;6.80;99.90;;;;;;5100383;27;20068;-71
2022/09/17 06:28:01;;;;;;;7.47;1.85;;;6.90;99.90;;;;;;5108120;27;20043;-71
2022/09/17 06:30:27;;;;;;;4.45;1.15;;;6.90;99.90;;;;;;5102507;28;20768;-70
2022/09/17 06:32:53;;;;;;;3.15;1.20;;;6.90;99.90;;;;;;5106121;28;20053;-69
2022/09/17 06:35:19;;;;;;;3.38;1.00;;;7.00;99.90;;;;;;5107356;28;20047;-69
2022/09/17 06:37:44;;;;;;;3.08;1.13;;;7.00;99.90;;;;;;5106477;27;20473;-70
2022/09/17 06:40:10;;;;;;;3.90;1.20;;;7.10;99.90;;;;;;5107044;28;20040;-69
2022/09/17 06:42:36;;;;;;;3.15;1.15;;;7.20;99.90;;;;;;5107204;27;20507;-69
2022/09/17 06:45:02;;;;;;;3.97;1.40;;;7.30;99.90;;;;;;5106404;28;20038;-70
2022/09/17 06:47:27;;;;;;;3.17;1.35;;;7.40;99.90;;;;;;5089979;28;20044;-70
2022/09/17 06:49:55;;;;;;;4.57;1.58;;;7.50;99.90;;;;;;5104703;27;20035;-69
2022/09/17 06:52:21;;;;;;;5.80;1.35;;;7.70;99.90;;;;;;5102807;27;20591;-69
2022/09/17 06:54:47;;;;;;;3.13;1.20;;;7.90;99.90;;;;;;5082912;28;20502;-70
2022/09/17 06:57:12;;;;;;;4.70;1.42;;;8.10;99.90;;;;;;5102654;28;20401;-71
2022/09/17 06:59:38;;;;;;;5.70;1.35;;;8.20;99.90;;;;;;5096303;28;20032;-70
2022/09/17 07:02:04;;;;;;;5.22;1.60;;;8.20;99.90;;;;;;5095066;28;20031;-70
2022/09/17 07:04:29;;;;;;;3.28;1.17;;;8.30;99.90;;;;;;5083952;28;20034;-71
2022/09/17 07:06:55;;;;;;;3.92;1.38;;;8.40;99.90;;;;;;5087099;28;20434;-71
2022/09/17 07:09:21;;;;;;;5.43;1.42;;;8.40;99.90;;;;;;5102395;28;20822;-69
2022/09/17 07:11:46;;;;;;;3.53;1.20;;;8.40;99.90;;;;;;5105374;28;20546;-70
2022/09/17 07:14:12;;;;;;;3.97;1.10;;;8.50;99.90;;;;;;5100622;28;20023;-70
2022/09/17 07:16:38;;;;;;;4.53;1.10;;;8.50;99.90;;;;;;5085185;28;20096;-69
2022/09/17 07:19:04;;;;;;;5.10;1.35;;;8.60;99.90;;;;;;5108989;28;20059;-69
2022/09/17 07:21:30;;;;;;;3.85;1.10;;;8.70;99.90;;;;;;5090811;28;20032;-72
2022/09/17 07:23:56;;;;;;;4.93;1.42;;;8.70;99.90;;;;;;5087312;28;20039;-69
2022/09/17 07:26:22;;;;;;;3.30;1.27;;;8.80;99.90;;;;;;5106789;28;20024;-69
2022/09/17 07:28:48;;;;;;;2.95;1.05;;;8.80;99.90;;;;;;5088009;28;20500;-68
2022/09/17 07:31:14;;;;;;;4.63;1.60;;;8.90;99.90;;;;;;5090573;28;20024;-69
2022/09/17 07:33:40;;;;;;;5.13;1.50;;;9.00;99.90;;;;;;5101986;28;20040;-73
2022/09/17 07:36:16;;;;;;;2.63;1.05;;;9.10;99.90;;;;;;5107832;28;21563;-70
2022/09/17 07:38:42;;;;;;;3.42;1.30;;;9.10;99.90;;;;;;5104095;28;20066;-71
2022/09/17 07:41:17;;;;;;;5.40;1.38;;;9.30;99.90;;;;;;5106797;28;20059;-70
2022/09/17 07:43:43;;;;;;;4.30;1.25;;;9.40;99.90;;;;;;5106516;28;20032;-71
2022/09/17 07:46:17;;;;;;;4.15;1.30;;;9.40;99.90;;;;;;5106004;28;20039;-71
2022/09/17 07:48:43;;;;;;;4.43;1.50;;;9.50;99.90;;;;;;5106144;28;20460;-72
2022/09/17 07:51:17;;;;;;;3.63;1.42;;;9.50;99.90;;;;;;5091064;28;20069;-72
2022/09/17 07:53:43;;;;;;;3.80;1.17;;;9.60;99.90;;;;;;5093779;28;20028;-71
2022/09/17 07:56:09;;;;;;;5.45;1.60;;;9.70;99.90;;;;;;5105568;28;20050;-70
2022/09/17 07:58:35;;;;;;;4.00;1.20;;;9.70;99.90;;;;;;5103233;28;20026;-70
2022/09/17 08:01:10;;;;;;;3.05;1.13;;;9.80;99.90;;;;;;5081120;28;20413;-72
2022/09/17 08:03:37;;;;;;;3.15;1.80;;;9.90;99.90;;;;;;5099265;28;20026;-71
2022/09/17 08:06:10;;;;;;;3.03;1.20;;;10.10;99.90;;;;;;5089843;28;20032;-71
2022/09/17 08:08:36;;;;;;;4.70;1.02;;;10.20;99.90;;;;;;5085855;27;20032;-71
2022/09/17 08:11:08;;;;;;;3.80;1.10;;;10.40;99.90;;;;;;5108926;27;20798;-71
2022/09/17 08:13:34;;;;;;;3.97;1.15;;;10.50;99.90;;;;;;5113570;27;20027;-71
2022/09/17 08:16:02;;;;;;;4.57;1.00;;;10.60;99.90;;;;;;5107542;27;20031;-69
2022/09/17 08:18:29;;;;;;;2.92;1.15;;;10.70;99.90;;;;;;5115182;27;20752;-70
2022/09/17 08:20:59;;;;;;;3.83;1.08;;;10.80;99.90;;;;;;5112634;27;20031;-70
2022/09/17 08:23:28;;;;;;;;;;;10.90;99.90;;;;;;5095975;28;20057;-72
2022/09/17 08:26:01;;;;;;;3.50;1.20;;;11.00;99.90;;;;;;5102122;27;19918;-73
2022/09/17 08:28:29;;;;;;;4.25;0.95;;;11.10;99.90;;;;;;5114869;27;20505;-70
2022/09/17 08:31:00;;;;;;;3.33;0.82;;;11.10;99.90;;;;;;5089880;27;20058;-71
2022/09/17 08:33:29;;;;;;;4.40;0.93;;;11.30;99.90;;;;;;5110674;27;20024;-70
2022/09/17 08:35:58;;;;;;;4.57;1.00;;;11.40;99.90;;;;;;5102684;27;20020;-72
2022/09/17 08:38:29;;;;;;;3.70;0.80;;;11.50;99.70;;;;;;5105675;27;20089;-71
2022/09/17 08:41:10;;;;;;;5.75;1.10;;;11.60;99.70;;;;;;5126865;27;20048;-71
2022/09/17 08:43:52;;;;;;;4.50;1.00;;;11.80;99.50;;;;;;5109035;28;20031;-71
2022/09/17 08:46:17;;;;;;;4.63;1.00;;;11.90;98.70;;;;;;5101638;28;20024;-71
2022/09/17 08:49:14;;;;;;;4.55;0.95;;;11.90;98.00;;;;;;5099010;27;20073;-71
2022/09/17 08:52:08;;;;;;;4.22;0.95;;;12.10;98.80;;;;;;5099205;27;20055;-72
2022/09/17 08:54:49;;;;;;;3.08;1.10;;;12.20;98.70;;;;;;5078470;28;20028;-70
2022/09/17 08:57:37;;;;;;;3.75;1.10;;;12.30;97.70;;;;;;5109352;27;20069;-71
2022/09/17 09:00:15;;;;;;;5.40;1.10;;;12.30;96.90;;;;;;5085190;28;20490;-72
2022/09/17 09:02:56;;;;;;;4.13;0.90;;;12.40;97.00;;;;;;5096450;28;20547;-72
2022/09/17 09:05:29;;;;;;;3.05;0.90;;;12.50;96.50;;;;;;5107258;27;20035;-72
2022/09/17 09:08:01;;;;;;;3.38;0.98;;;12.50;96.50;;;;;;5105486;27;20031;-72
2022/09/17 09:10:37;;;;;;;6.25;0.98;;;12.70;95.50;;;;;;5130352;27;20027;-72
2022/09/17 09:13:03;;;;;;;4.05;1.00;;;12.80;94.00;;;;;;5107030;27;20386;-71
2022/09/17 09:15:41;;;;;;;4.40;0.80;;;12.90;94.20;;;;;;5097582;28;20595;-72
2022/09/17 09:18:12;;;;;;;3.10;1.05;;;13.00;93.00;;;;;;5084897;27;20042;-70
2022/09/17 09:20:52;;;;;;;4.38;1.17;;;13.10;92.60;;;;;;5106999;27;20354;-73
2022/09/17 09:23:30;;;;;;;4.13;0.90;;;13.20;92.70;;;;;;5110043;27;20032;-73
2022/09/17 09:26:17;;;;;;;4.07;1.00;;;13.30;92.80;;;;;;5116025;27;20036;-72
2022/09/17 09:28:52;;;;;;;4.72;1.00;;;13.40;91.60;;;;;;5091931;27;20028;-71
2022/09/17 09:31:27;;;;;;;6.05;0.88;;;13.70;90.60;;;;;;5095186;27;20123;-72
2022/09/17 09:33:54;;;;;;;6.60;1.25;;;13.70;90.00;;;;;;5095853;27;20027;-73
2022/09/17 09:36:20;;;;;;;3.67;0.70;;;13.70;88.60;;;;;;5095539;27;20028;-74
2022/09/17 09:38:59;;;;;;;4.65;0.82;;;13.80;90.40;;;;;;5115270;27;20023;-72
2022/09/17 09:41:39;;;;;;;4.20;0.85;;;14.00;87.90;;;;;;5115223;27;20068;-71
2022/09/17 09:44:09;;;;;;;2.80;0.70;;;14.00;84.70;;;;;;5116538;27;20035;-74
2022/09/17 09:46:59;;;;;;;4.25;1.00;;;14.20;85.10;;;;;;5116096;27;20083;-71
2022/09/17 09:49:59;;;;;;;4.80;0.80;;;14.30;80.70;;;;;;5095435;27;20039;-70
2022/09/17 09:52:25;;;;;;;;;;;14.40;79.40;;;;;;5114773;27;20043;-71
2022/09/17 09:54:56;;;;;;;4.65;0.70;;;14.30;78.80;;;;;;5095403;27;19912;-71
2022/09/17 09:57:31;;;;;;;4.35;0.80;;;14.40;79.80;;;;;;5097071;27;20068;-72
2022/09/17 10:00:30;;;;;;;3.15;0.70;;;14.50;78.40;;;;;;5089790;27;20104;-73
2022/09/17 10:03:13;;;;;;;2.90;1.00;;;14.50;78.10;;;;;;5104532;27;20629;-73
2022/09/17 10:05:39;;;;;;;3.70;0.70;;;14.60;77.10;;;;;;5108670;28;20032;-73
2022/09/17 10:08:13;;;;;;;2.28;0.70;;;14.60;76.10;;;;;;5090410;28;20038;-70
2022/09/17 10:10:54;;;;;;;3.25;0.70;;;14.60;75.50;;;;;;5108241;28;20039;-70
2022/09/17 10:13:20;;;;;;;4.25;0.77;;;14.70;77.30;;;;;;5108336;28;20027;-71
2022/09/17 10:15:46;;;;;;;3.55;0.80;;;14.80;74.40;;;;;;5108163;28;20039;-70
2022/09/17 10:18:23;;;;;;;2.25;0.57;;;14.80;73.50;;;;;;5107755;28;20043;-71
2022/09/17 10:20:49;;;;;;;3.63;0.77;;;14.90;71.70;;;;;;5102500;28;20027;-72
2022/09/17 10:23:15;;;;;;;3.63;0.80;;;15.00;72.00;;;;;;5092743;28;20100;-71
2022/09/17 10:25:42;;;;;;;3.95;0.80;;;15.10;69.90;;;;;;5084130;28;20115;-70
2022/09/17 10:28:32;;;;;;;4.05;0.93;;;15.10;69.20;;;;;;5084171;28;20648;-69
2022/09/17 10:31:00;;;;;;;6.78;0.60;;;15.20;68.90;;;;;;5093462;27;20058;-70
2022/09/17 10:33:30;;;;;;;5.35;0.77;;;15.20;67.80;;;;;;5096237;28;20039;-70
2022/09/17 10:36:11;;;;;;;3.05;0.63;;;15.20;67.30;;;;;;5080904;28;20030;-71
2022/09/17 10:38:39;;;;;;;2.20;0.60;;;15.40;67.40;;;;;;5107864;28;20107;-72
2022/09/17 10:41:20;;;;;;;2.13;0.50;;;15.40;65.90;;;;;;5094565;28;20039;-72
2022/09/17 10:43:47;;;;;;;1.98;0.50;;;15.50;65.30;;;;;;5097639;28;20030;-70
2022/09/17 10:46:28;;;;;;;2.60;0.60;;;15.60;65.70;;;;;;5100073;28;20532;-71
2022/09/17 10:49:19;;;;;;;2.88;0.68;;;15.90;63.50;;;;;;5096530;28;20123;-71
2022/09/17 10:51:46;;;;;;;4.53;0.73;;;16.30;62.30;;;;;;5086091;28;20664;-72
2022/09/17 10:54:11;;;;;;;2.80;0.50;;;16.40;61.30;;;;;;5086091;28;20083;-72
2022/09/17 10:56:41;;;;;;;2.80;0.60;;;16.50;61.90;;;;;;5086526;28;20031;-71
2022/09/17 10:59:27;;;;;;;;;;;16.50;60.10;;;;;;5085752;28;20028;-71
2022/09/17 11:02:21;;;;;;;4.05;0.60;;;16.60;58.90;;;;;;5082982;28;20322;-72
2022/09/17 11:05:02;;;;;;;2.13;0.45;;;16.70;60.20;;;;;;5079940;28;20032;-73
2022/09/17 11:08:00;;;;;;;2.85;0.70;;;17.00;59.10;;;;;;5079065;28;20032;-71
2022/09/17 11:10:32;;;;;;;3.42;0.60;;;17.40;57.30;;;;;;5094721;28;20043;-73
2022/09/17 11:13:11;;;;;;;3.70;0.80;;;17.30;57.90;;;;;;5074701;28;20052;-73
2022/09/17 11:15:37;;;;;;;;;;;17.10;58.70;;;;;;5083879;28;20027;-72
2022/09/17 11:18:37;;;;;;;7.38;0.70;;;16.80;58.00;;;;;;5085691;28;19908;-71
2022/09/17 11:21:15;;;;;;;4.88;0.80;;;16.70;57.80;;;;;;5103016;28;20597;-71
2022/09/17 11:23:50;;;;;;;1.77;0.50;;;16.50;59.60;;;;;;5089018;28;20040;-70
2022/09/17 11:26:36;;;;;;;4.68;0.90;;;16.50;58.90;;;;;;5100145;28;20500;-72
2022/09/17 11:29:24;;;;;;;3.92;0.70;;;16.50;59.80;;;;;;5105992;28;20040;-72
2022/09/17 11:31:58;;;;;;;2.15;0.60;;;16.50;59.30;;;;;;5082539;28;20108;-72
2022/09/17 11:34:34;;;;;;;3.28;0.60;;;16.50;59.70;;;;;;5107639;28;20027;-70
2022/09/17 11:37:18;;;;;;;4.05;0.60;;;16.90;58.70;;;;;;5087702;28;20489;-73
2022/09/17 11:40:10;;;;;;;2.38;0.60;;;18.30;56.90;;;;;;5083367;28;20105;-71
2022/09/17 11:42:44;;;;;;;3.35;0.60;;;20.60;52.80;;;;;;5071573;28;20159;-69
2022/09/17 11:45:36;;;;;;;3.10;0.75;;;24.60;44.70;;;;;;5096360;28;20055;-69
2022/09/17 11:48:11;;;;;;;3.13;0.70;;;25.80;40.30;;;;;;5007533;28;20045;-70
2022/09/17 11:50:45;;;;;;;3.22;0.60;;;23.80;41.40;;;;;;5025084;28;20048;-69
2022/09/17 11:53:22;;;;;;;3.20;0.70;;;21.60;43.50;;;;;;5013544;28;20046;-70
2022/09/17 11:55:54;;;;;;;4.60;0.65;;;19.70;47.50;;;;;;5024885;28;20063;-72
2022/09/17 11:58:47;;;;;;;4.03;0.70;;;18.70;49.80;;;;;;5024771;28;20046;-70
2022/09/17 12:01:25;;;;;;;3.33;0.65;;;18.00;51.10;;;;;;5015255;28;20038;-70
2022/09/17 12:04:12;;;;;;;3.72;0.70;;;17.60;52.80;;;;;;5023481;28;20176;-69
2022/09/17 12:06:48;;;;;;;2.33;0.70;;;17.50;54.50;;;;;;5022514;28;20042;-71
2022/09/17 12:09:19;;;;;;;5.20;0.77;;;17.40;54.50;;;;;;5027058;28;20051;-69
2022/09/17 12:12:09;;;;;;;2.17;0.70;;;17.30;54.00;;;;;;5026762;28;20053;-70
2022/09/17 12:14:49;;;;;;;4.65;0.63;;;17.50;54.30;;;;;;5021875;28;20037;-70
2022/09/17 12:17:23;;;;;;;3.00;0.75;;;17.50;53.80;;;;;;5010658;28;20037;-70
2022/09/17 12:19:57;;;;;;;3.88;0.90;;;17.50;54.40;;;;;;5021522;28;20041;-69
2022/09/17 12:22:27;;;;;;;2.55;0.60;;;17.50;55.00;;;;;;5026338;28;20041;-69
2022/09/17 12:24:53;;;;;;;2.53;0.70;;;17.60;53.40;;;;;;5049514;28;20532;-71
2022/09/17 12:27:53;;;;;;;3.25;0.82;;;17.50;54.40;;;;;;5110229;28;20537;-72
2022/09/17 12:30:24;;;;;;;3.53;1.00;;;17.50;55.70;;;;;;5111395;27;20032;-70
2022/09/17 12:33:08;;;;;;;2.13;0.80;;;17.60;54.30;;;;;;5109791;28;20081;-69
2022/09/17 12:36:08;;;;;;;4.20;0.75;;;17.70;54.30;;;;;;5098224;28;20028;-69
2022/09/17 12:39:20;;;;;;;2.55;0.60;;;17.70;54.80;;;;;;5091860;28;20062;-71
2022/09/17 12:42:06;;;;;;;3.40;0.70;;;17.80;55.10;;;;;;5109671;28;20505;-69
2022/09/17 12:45:00;;;;;;;3.25;0.75;;;17.80;55.40;;;;;;5106328;28;20040;-69
2022/09/17 12:47:28;;;;;;;3.67;0.70;;;17.90;54.10;;;;;;5089618;28;20052;-72
2022/09/17 12:50:03;;;;;;;2.42;0.70;;;18.00;54.20;;;;;;5099893;28;20031;-71
2022/09/17 12:52:57;;;;;;;4.35;0.93;;;17.90;53.50;;;;;;5110174;28;20032;-70
2022/09/17 12:55:49;;;;;;;2.30;0.50;;;17.90;53.10;;;;;;5074120;28;20058;-69
2022/09/17 12:58:23;;;;;;;5.57;0.85;;;18.10;53.70;;;;;;5101280;27;20039;-71
2022/09/17 13:01:24;;;;;;;3.17;0.63;;;18.00;53.00;;;;;;5110046;27;20036;-70
2022/09/17 13:04:00;;;;;;;3.33;0.60;;;18.10;52.10;;;;;;5091805;28;20466;-73
2022/09/17 13:07:04;;;;;;;2.42;0.60;;;18.20;53.40;;;;;;5085358;28;20028;-70
2022/09/17 13:09:44;;;;;;;4.55;0.73;;;18.30;51.80;;;;;;5108314;28;20042;-69
2022/09/17 13:12:17;;;;;;;3.83;0.80;;;18.50;51.90;;;;;;5108575;27;20040;-70
2022/09/17 13:14:43;;;;;;;2.40;0.55;;;20.20;50.30;;;;;;5107661;27;20027;-70
2022/09/17 13:17:33;;;;;;;4.78;0.90;;;20.80;49.80;;;;;;5087901;28;20496;-69
2022/09/17 13:20:11;;;;;;;3.95;0.90;;;20.30;49.80;;;;;;5109072;27;20523;-71
2022/09/17 13:22:51;;;;;;;2.72;0.70;;;19.50;48.80;;;;;;5095060;28;20036;-70
2022/09/17 13:25:20;;;;;;;4.93;0.77;;;19.00;51.10;;;;;;5107662;27;20031;-71